createdAt,value
2023-01-30T00:01:49.994Z,28.10
2023-01-30T00:06:55.421Z,25.48
2023-01-30T00:12:00.750Z,23.60
2023-01-30T00:17:06.148Z,27.00
2023-01-30T00:22:11.677Z,23.23
2023-01-30T00:27:17.329Z,24.35
2023-01-30T00:32:22.659Z,24.45
2023-01-30T00:37:28.051Z,23.67
2023-01-30T00:42:55.509Z,24.92
2023-01-30T00:48:01.194Z,22.45
2023-01-30T00:53:06.479Z,22.98
2023-01-30T00:58:12.612Z,27.30
2023-01-30T01:03:18.337Z,31.92
2023-01-30T01:08:23.753Z,26.38
2023-01-30T01:13:29.295Z,25.08
2023-01-30T01:18:34.713Z,32.35
2023-01-30T01:23:40.440Z,26.42
2023-01-30T01:28:45.861Z,29.48
2023-01-30T01:33:52.026Z,25.30
2023-01-30T01:38:57.399Z,24.20
2023-01-30T01:44:12.311Z,27.80
2023-01-30T01:49:33.531Z,27.40
2023-01-30T01:54:53.528Z,25.85
2023-01-30T02:00:16.009Z,27.65
2023-01-30T02:05:22.049Z,23.13
2023-01-30T02:10:38.640Z,27.15
2023-01-30T02:15:44.602Z,30.58
2023-01-30T02:21:16.083Z,27.58
2023-01-30T02:26:56.970Z,25.25
2023-01-30T02:32:20.822Z,25.55
2023-01-30T02:37:45.871Z,29.45
2023-01-30T02:43:09.793Z,24.58
2023-01-30T02:48:27.394Z,27.83
2023-01-30T02:53:37.485Z,28.70
2023-01-30T02:58:52.298Z,31.13
2023-01-30T03:04:31.130Z,25.65
2023-01-30T03:10:00.175Z,25.50
2023-01-30T03:15:13.971Z,28.38
2023-01-30T03:20:21.551Z,23.15
2023-01-30T03:25:29.663Z,21.67
2023-01-30T03:30:35.259Z,25.90
2023-01-30T03:36:06.885Z,28.08
2023-01-30T03:41:13.861Z,27.27
2023-01-30T03:46:19.501Z,35.50
2023-01-30T03:51:25.563Z,27.30
2023-01-30T03:56:32.339Z,25.30
2023-01-30T04:01:38.318Z,25.88
2023-01-30T04:06:44.102Z,37.03
2023-01-30T04:11:49.985Z,26.60
2023-01-30T04:16:56.973Z,28.75
2023-01-30T04:22:37.189Z,23.13
2023-01-30T04:27:42.899Z,26.00
2023-01-30T04:33:14.951Z,24.63
2023-01-30T04:38:21.218Z,24.92
2023-01-30T04:43:28.803Z,31.50
2023-01-30T04:49:03.257Z,30.52
2023-01-30T04:54:07.587Z,29.75
2023-01-30T04:59:12.652Z,24.10
2023-01-30T05:04:22.562Z,23.75
2023-01-30T05:09:27.016Z,34.88
2023-01-30T05:14:31.667Z,26.00
2023-01-30T05:19:36.705Z,29.38
2023-01-30T05:24:40.903Z,25.65
2023-01-30T05:29:45.340Z,28.20
2023-01-30T05:34:50.619Z,24.65
2023-01-30T05:39:54.851Z,26.33
2023-01-30T05:44:59.168Z,26.05
2023-01-30T05:50:03.311Z,27.23
2023-01-30T05:55:07.992Z,29.15
2023-01-30T06:00:12.735Z,26.33
2023-01-30T06:05:20.005Z,27.65
2023-01-30T06:10:24.202Z,28.60
2023-01-30T06:15:28.602Z,24.67
2023-01-30T06:20:32.945Z,23.00
2023-01-30T06:25:37.987Z,27.08
2023-01-30T06:30:44.005Z,24.67
2023-01-30T06:35:53.280Z,27.75
2023-01-30T06:40:57.422Z,27.73
2023-01-30T06:46:01.803Z,27.67
2023-01-30T06:51:06.081Z,32.55
2023-01-30T06:56:10.369Z,31.70
2023-01-30T07:01:15.283Z,29.25
2023-01-30T07:06:19.920Z,26.33
2023-01-30T07:11:24.117Z,28.25
2023-01-30T07:16:29.984Z,28.67
2023-01-30T07:21:34.204Z,34.55
2023-01-30T07:26:38.553Z,31.60
2023-01-30T07:31:42.832Z,35.33
2023-01-30T07:36:48.004Z,28.23
2023-01-30T07:41:57.000Z,25.00
2023-01-30T07:47:02.419Z,29.30
2023-01-30T07:52:07.015Z,30.63
2023-01-30T07:57:11.135Z,26.33
2023-01-30T08:02:15.280Z,26.33
2023-01-30T08:07:19.880Z,25.65
2023-01-30T08:12:24.117Z,22.08
2023-01-30T08:17:29.543Z,22.63
2023-01-30T08:22:34.266Z,25.63
2023-01-30T08:27:38.544Z,34.47
2023-01-30T08:32:42.940Z,32.17
2023-01-30T08:37:46.969Z,30.48
2023-01-30T08:42:51.170Z,29.65
2023-01-30T08:48:00.476Z,29.15
2023-01-30T08:53:06.772Z,37.20
2023-01-30T08:58:10.932Z,25.45
2023-01-30T09:03:16.468Z,31.88
2023-01-30T09:08:20.583Z,33.05
2023-01-30T09:13:24.638Z,30.60
2023-01-30T09:18:28.785Z,32.97
2023-01-30T09:23:33.153Z,31.13
2023-01-30T09:28:37.444Z,41.72
2023-01-30T09:33:41.565Z,30.50
2023-01-30T09:38:45.683Z,34.88
2023-01-30T09:44:14.685Z,30.65
2023-01-30T09:49:49.897Z,37.15
2023-01-30T09:55:19.411Z,31.77
2023-01-30T10:00:39.940Z,30.25
2023-01-30T10:06:12.327Z,31.90
2023-01-30T10:11:36.275Z,33.33
2023-01-30T10:17:00.260Z,41.75
2023-01-30T10:22:32.973Z,33.88
2023-01-30T10:27:38.456Z,38.05
2023-01-30T10:32:52.347Z,37.20
2023-01-30T10:38:23.012Z,37.85
2023-01-30T10:43:37.751Z,35.38
2023-01-30T10:48:53.767Z,45.00
2023-01-30T10:54:13.975Z,41.72
2023-01-30T10:59:55.307Z,37.55
2023-01-30T11:05:01.883Z,36.72
2023-01-30T11:10:17.750Z,38.80
2023-01-30T11:20:29.339Z,36.95
2023-01-30T11:31:40.829Z,37.28
2023-01-30T11:36:49.114Z,38.63
2023-01-30T11:41:57.025Z,36.70
2023-01-30T11:47:26.239Z,36.63
2023-01-30T11:52:35.630Z,40.22
2023-01-30T11:57:44.217Z,44.22
2023-01-30T12:02:50.693Z,43.30
2023-01-30T12:08:11.646Z,41.50
2023-01-30T12:13:44.158Z,39.08
2023-01-30T12:19:07.966Z,39.28
2023-01-30T12:24:35.367Z,38.70
2023-01-30T12:30:04.967Z,42.17
2023-01-30T12:35:19.324Z,40.70
2023-01-30T12:40:55.919Z,41.97
2023-01-30T12:46:12.413Z,45.15
2023-01-30T12:51:33.647Z,46.80
2023-01-30T12:56:53.275Z,42.58
2023-01-30T13:02:23.139Z,45.97
2023-01-30T13:07:49.377Z,45.33
2023-01-30T13:13:16.689Z,52.65
2023-01-30T13:19:03.947Z,58.30
2023-01-30T13:24:44.142Z,50.83
2023-01-30T13:34:55.162Z,46.10
2023-01-30T13:40:12.631Z,49.45
2023-01-30T13:45:41.583Z,52.97
2023-01-30T13:51:18.702Z,46.47
2023-01-30T13:56:43.074Z,50.72
2023-01-30T14:02:26.494Z,49.50
2023-01-30T14:07:43.014Z,54.17
2023-01-30T14:12:51.486Z,45.10
2023-01-30T14:18:27.926Z,48.92
2023-01-30T14:24:06.360Z,51.58
2023-01-30T14:29:12.263Z,65.97
2023-01-30T14:34:43.026Z,58.92
2023-01-30T14:39:54.650Z,53.40
2023-01-30T14:45:17.730Z,52.25
2023-01-30T14:50:24.446Z,62.30
2023-01-30T14:55:30.178Z,54.72
2023-01-30T15:00:39.662Z,50.15
2023-01-30T15:05:48.227Z,45.40
2023-01-30T15:10:53.680Z,67.78
2023-01-30T15:16:48.023Z,96.05
2023-01-30T15:22:18.519Z,70.80
2023-01-30T15:27:58.801Z,112.63
2023-01-30T15:38:38.423Z,114.30
2023-01-30T15:44:03.279Z,50.95
2023-01-30T15:49:51.643Z,48.47
2023-01-30T15:55:00.368Z,49.92
2023-01-30T16:00:10.110Z,53.75
2023-01-30T16:05:25.392Z,54.70
2023-01-30T16:10:31.921Z,54.90
2023-01-30T16:15:51.194Z,63.85
2023-01-30T16:21:05.070Z,59.42
2023-01-30T16:26:18.581Z,68.57
2023-01-30T16:31:26.483Z,84.47
2023-01-30T16:36:41.662Z,49.15
2023-01-30T16:41:57.867Z,63.05
2023-01-30T16:47:06.549Z,56.95
2023-01-30T16:58:00.907Z,49.35
2023-01-30T17:03:46.456Z,50.03
2023-01-30T17:08:54.658Z,47.97
2023-01-30T17:14:31.174Z,47.15
2023-01-30T17:19:38.046Z,51.03
2023-01-30T17:24:43.550Z,48.40
2023-01-30T17:29:49.931Z,53.17
2023-01-30T17:34:56.584Z,49.55
2023-01-30T17:40:02.180Z,50.00
2023-01-30T17:45:07.995Z,53.94
2023-01-30T17:50:15.138Z,50.60
2023-01-30T17:55:21.983Z,46.78
2023-01-30T18:00:27.590Z,46.65
2023-01-30T18:05:33.419Z,54.50
2023-01-30T18:10:38.711Z,58.53
2023-01-30T18:15:43.989Z,63.85
2023-01-30T18:20:49.305Z,51.28
2023-01-30T18:25:54.745Z,49.50
2023-01-30T18:31:00.528Z,46.17
2023-01-30T18:36:11.051Z,56.55
2023-01-30T18:41:41.221Z,46.45
2023-01-30T18:46:47.172Z,42.45
2023-01-30T18:51:52.724Z,44.92
2023-01-30T18:56:58.463Z,46.05
2023-01-30T19:02:04.100Z,49.17
2023-01-30T19:07:09.204Z,55.38
2023-01-30T19:12:34.351Z,44.15
2023-01-30T19:17:39.788Z,54.63
2023-01-30T19:22:45.339Z,48.15
2023-01-30T19:27:50.983Z,46.03
2023-01-30T19:32:58.767Z,45.75
2023-01-30T19:38:05.298Z,44.63
2023-01-30T19:43:37.411Z,54.85
2023-01-30T19:48:44.206Z,48.03
2023-01-30T19:54:01.635Z,48.63
2023-01-30T19:59:06.944Z,41.58
2023-01-30T20:04:12.481Z,45.15
2023-01-30T20:09:18.217Z,45.17
2023-01-30T20:14:23.542Z,44.67
2023-01-30T20:19:29.053Z,44.28
2023-01-30T20:24:35.329Z,46.10
2023-01-30T20:29:40.754Z,46.03
2023-01-30T20:34:46.276Z,48.10
2023-01-30T20:39:51.849Z,44.40
2023-01-30T20:44:57.542Z,45.25
2023-01-30T20:50:03.117Z,40.78
2023-01-30T20:55:09.498Z,54.40
2023-01-30T21:00:15.159Z,44.85
2023-01-30T21:05:21.112Z,48.83
2023-01-30T21:10:26.560Z,44.60
2023-01-30T21:15:31.987Z,48.28
2023-01-30T21:20:37.950Z,46.50
2023-01-30T21:25:43.543Z,46.20
2023-01-30T21:30:49.491Z,45.95
2023-01-30T21:35:55.180Z,45.45
2023-01-30T21:41:19.997Z,48.55
2023-01-30T21:46:25.551Z,44.80
2023-01-30T21:51:31.116Z,56.95
2023-01-30T21:56:36.715Z,44.88
2023-01-30T22:01:42.596Z,42.25
2023-01-30T22:06:47.808Z,46.50
2023-01-30T22:11:53.712Z,47.50
2023-01-30T22:16:59.234Z,49.75
2023-01-30T22:22:05.008Z,45.50
2023-01-30T22:27:10.114Z,44.35
2023-01-30T22:32:15.302Z,49.58
2023-01-30T22:37:20.742Z,44.10
2023-01-30T22:42:26.457Z,45.55
2023-01-30T22:47:31.996Z,43.50
2023-01-30T22:52:37.333Z,42.13
2023-01-30T22:57:42.758Z,50.53
2023-01-30T23:02:48.232Z,49.08
2023-01-30T23:07:53.708Z,46.05
2023-01-30T23:13:08.743Z,45.40
2023-01-30T23:18:34.887Z,53.63
2023-01-30T23:23:40.800Z,47.22
2023-01-30T23:28:46.621Z,60.15
2023-01-30T23:34:18.390Z,52.53
2023-01-30T23:39:23.892Z,51.35
2023-01-30T23:44:29.167Z,47.95
2023-01-30T23:49:35.345Z,55.58
2023-01-30T23:54:40.832Z,53.17
2023-01-30T23:59:45.910Z,48.25
